Time;durP1;ratioP1;P1;durP2;ratioP2;P2;SDS_P1;SDS_P2;PMS_P1;PMS_P2;Temp;Humidity;BMP_temperature;BMP_pressure;BME280_temperature;BME280_humidity;BME280_pressure;Samples;Min_cycle;Max_cycle;Signal;HPM_P1;HPM_P2
2022/07/12 00:00:55;;;;;;;3.78;2.13;;;16.70;99.90;;;;;;5034156;28;20520;-69
2022/07/12 00:03:21;;;;;;;3.42;2.00;;;16.70;99.90;;;;;;5018639;28;20052;-69
2022/07/12 00:05:46;;;;;;;3.17;1.90;;;16.70;99.90;;;;;;5035729;28;20393;-69
2022/07/12 00:08:12;;;;;;;3.05;1.80;;;16.70;99.90;;;;;;5018360;28;20037;-69
2022/07/12 00:10:38;;;;;;;4.15;2.20;;;16.70;99.90;;;;;;5035671;28;20048;-68
2022/07/12 00:13:04;;;;;;;3.25;2.17;;;16.70;99.90;;;;;;5034536;28;20048;-68
2022/07/12 00:15:29;;;;;;;3.60;2.08;;;16.60;99.90;;;;;;5018913;28;20043;-68
2022/07/12 00:17:55;;;;;;;5.07;2.60;;;16.60;99.90;;;;;;5034598;28;20119;-69
2022/07/12 00:20:21;;;;;;;4.10;2.35;;;16.60;99.90;;;;;;5035526;28;20056;-69
2022/07/12 00:22:46;;;;;;;3.30;1.90;;;16.60;99.90;;;;;;5042770;28;20037;-69
2022/07/12 00:25:12;;;;;;;3.30;2.00;;;16.60;99.90;;;;;;5051633;28;20037;-68
2022/07/12 00:27:38;;;;;;;4.30;2.15;;;16.60;99.90;;;;;;5050541;28;20041;-68
2022/07/12 00:30:05;;;;;;;3.30;2.10;;;16.60;99.90;;;;;;5041659;28;20035;-68
2022/07/12 00:32:31;;;;;;;4.40;2.42;;;16.50;99.90;;;;;;5040329;28;20045;-68
2022/07/12 00:34:57;;;;;;;4.47;2.60;;;16.50;99.90;;;;;;5041959;28;20111;-69
2022/07/12 00:37:23;;;;;;;3.80;2.20;;;16.50;99.90;;;;;;5040631;28;20067;-69
2022/07/12 00:39:48;;;;;;;3.85;2.30;;;16.50;99.90;;;;;;5041697;28;20063;-69
2022/07/12 00:42:14;;;;;;;4.20;2.45;;;16.50;99.90;;;;;;5042059;28;20037;-68
2022/07/12 00:44:39;;;;;;;4.95;2.67;;;16.40;99.90;;;;;;5024990;28;20477;-68
2022/07/12 00:47:05;;;;;;;4.55;2.65;;;16.40;99.90;;;;;;5039927;28;20029;-69
2022/07/12 00:49:31;;;;;;;4.60;2.70;;;16.40;99.90;;;;;;5023320;28;20401;-68
2022/07/12 00:51:57;;;;;;;4.93;2.65;;;16.40;99.90;;;;;;5040523;28;20037;-69
2022/07/12 00:54:23;;;;;;;5.57;2.85;;;16.50;99.90;;;;;;5025220;28;20063;-68
2022/07/12 00:56:49;;;;;;;5.70;2.47;;;16.40;99.90;;;;;;5024768;28;20500;-68
2022/07/12 00:59:15;;;;;;;4.53;2.30;;;16.30;99.90;;;;;;5040849;28;20039;-69
2022/07/12 01:01:42;;;;;;;4.30;2.40;;;16.40;99.90;;;;;;5040399;28;20044;-69
2022/07/12 01:04:08;;;;;;;4.50;2.40;;;16.30;99.90;;;;;;5040655;28;20037;-69
2022/07/12 01:06:35;;;;;;;4.30;2.30;;;16.40;99.90;;;;;;5005606;28;20037;-68
2022/07/12 01:09:02;;;;;;;4.35;2.17;;;16.30;99.90;;;;;;5021827;28;20037;-68
2022/07/12 01:11:28;;;;;;;3.75;2.25;;;16.20;99.90;;;;;;5021851;28;20025;-69
2022/07/12 01:13:54;;;;;;;4.10;2.33;;;16.30;99.90;;;;;;5023151;28;20068;-69
2022/07/12 01:16:21;;;;;;;3.40;2.20;;;16.30;99.90;;;;;;5041565;28;20386;-68
2022/07/12 01:18:46;;;;;;;5.50;2.47;;;16.30;99.90;;;;;;5042936;28;20096;-68
2022/07/12 01:21:18;;;;;;;5.13;2.85;;;16.20;99.90;;;;;;5024869;28;20404;-68
2022/07/12 01:23:46;;;;;;;5.05;2.85;;;16.20;99.90;;;;;;5040376;28;20048;-69
2022/07/12 01:26:12;;;;;;;5.20;2.85;;;16.20;99.90;;;;;;5041184;28;20555;-69
2022/07/12 01:28:38;;;;;;;5.68;3.00;;;16.10;99.90;;;;;;5024701;28;20045;-68
2022/07/12 01:31:04;;;;;;;4.63;2.83;;;16.10;99.90;;;;;;5024651;28;20048;-68
2022/07/12 01:33:30;;;;;;;4.35;2.55;;;16.20;99.90;;;;;;5024197;28;20559;-68
2022/07/12 01:35:57;;;;;;;5.43;2.85;;;16.20;99.90;;;;;;5040277;28;20501;-69
2022/07/12 01:38:23;;;;;;;4.95;2.70;;;16.20;99.90;;;;;;5022800;28;20103;-68
2022/07/12 01:40:48;;;;;;;6.57;3.03;;;16.20;99.90;;;;;;5020247;28;20493;-69
2022/07/12 01:43:14;;;;;;;6.30;3.90;;;16.20;99.90;;;;;;5045296;28;20036;-69
2022/07/12 01:45:41;;;;;;;6.40;3.70;;;16.20;99.90;;;;;;5049672;28;20570;-69
2022/07/12 01:48:07;;;;;;;6.43;3.70;;;16.30;99.90;;;;;;5020950;28;20093;-68
2022/07/12 01:50:33;;;;;;;6.25;3.70;;;16.30;99.90;;;;;;5037688;28;20091;-68
2022/07/12 01:53:00;;;;;;;6.38;3.25;;;16.30;99.90;;;;;;5019642;28;20049;-68
2022/07/12 01:55:26;;;;;;;6.78;3.80;;;16.30;99.90;;;;;;5019623;28;20049;-69
2022/07/12 01:57:53;;;;;;;5.90;3.50;;;16.30;99.90;;;;;;5021248;28;20041;-68
2022/07/12 02:00:21;;;;;;;6.30;3.67;;;16.30;99.90;;;;;;5035288;28;20060;-69
2022/07/12 02:02:47;;;;;;;8.05;3.92;;;16.30;99.90;;;;;;5034918;28;20048;-68
2022/07/12 02:05:13;;;;;;;6.57;3.88;;;16.30;99.90;;;;;;5036157;28;20378;-68
2022/07/12 02:07:40;;;;;;;7.32;3.72;;;16.30;99.90;;;;;;5039851;28;20060;-68
2022/07/12 02:10:07;;;;;;;7.68;4.18;;;16.40;99.90;;;;;;5037394;28;20040;-69
2022/07/12 02:12:33;;;;;;;6.88;4.13;;;16.40;99.90;;;;;;5008288;28;20116;-69
2022/07/12 02:15:00;;;;;;;7.63;3.95;;;16.30;99.90;;;;;;5020359;28;20139;-68
2022/07/12 02:17:25;;;;;;;7.80;4.47;;;16.30;99.90;;;;;;5034039;28;20048;-68
2022/07/12 02:19:51;;;;;;;7.13;3.95;;;16.40;99.90;;;;;;5033822;28;20037;-68
2022/07/12 02:22:16;;;;;;;6.38;4.07;;;16.30;99.90;;;;;;5020780;28;20489;-68
2022/07/12 02:24:42;;;;;;;7.28;3.95;;;16.30;99.90;;;;;;5035188;28;20466;-68
2022/07/12 02:27:08;;;;;;;7.53;4.25;;;16.40;99.90;;;;;;5035619;28;20504;-68
2022/07/12 02:29:35;;;;;;;6.85;4.30;;;16.30;99.90;;;;;;5036217;28;20037;-68
2022/07/12 02:32:01;;;;;;;8.65;4.20;;;16.40;99.90;;;;;;5015010;28;20087;-69
2022/07/12 02:34:26;;;;;;;7.32;4.05;;;16.40;99.90;;;;;;5033739;28;20504;-68
2022/07/12 02:36:52;;;;;;;6.90;4.05;;;16.40;99.90;;;;;;5035707;28;20072;-68
2022/07/12 02:39:17;;;;;;;7.35;4.45;;;16.30;99.90;;;;;;5034641;28;20156;-68
2022/07/12 02:41:43;;;;;;;7.30;4.50;;;16.30;99.90;;;;;;5034979;28;20432;-69
2022/07/12 02:44:08;;;;;;;8.50;4.15;;;16.30;99.90;;;;;;5036005;28;20139;-68
2022/07/12 02:46:35;;;;;;;7.22;4.38;;;16.20;99.90;;;;;;5035789;28;20508;-68
2022/07/12 02:49:00;;;;;;;7.25;4.82;;;16.20;99.90;;;;;;5020227;28;20075;-68
2022/07/12 02:51:26;;;;;;;7.93;4.75;;;16.20;99.90;;;;;;5019883;28;20060;-68
2022/07/12 02:53:52;;;;;;;7.13;4.75;;;16.20;99.90;;;;;;5018815;28;20041;-68
2022/07/12 02:56:17;;;;;;;6.72;4.30;;;16.10;99.90;;;;;;5036263;28;20390;-68
2022/07/12 02:58:43;;;;;;;7.30;4.45;;;16.10;99.90;;;;;;5017231;28;20040;-68
2022/07/12 03:01:08;;;;;;;7.10;4.22;;;16.00;99.90;;;;;;5034488;28;20075;-68
2022/07/12 03:03:34;;;;;;;9.23;4.15;;;16.00;99.90;;;;;;5034559;28;20087;-68
2022/07/12 03:06:00;;;;;;;6.85;4.25;;;15.90;99.90;;;;;;5035615;28;20069;-68
2022/07/12 03:08:25;;;;;;;7.15;4.72;;;15.90;99.90;;;;;;5015824;28;20040;-68
2022/07/12 03:10:51;;;;;;;6.53;4.00;;;15.80;99.90;;;;;;5018567;28;20040;-68
2022/07/12 03:13:17;;;;;;;7.47;4.13;;;15.80;99.90;;;;;;5017879;28;20045;-69
2022/07/12 03:15:45;;;;;;;8.98;4.60;;;15.80;99.90;;;;;;5036356;28;20045;-68
2022/07/12 03:18:11;;;;;;;7.65;4.50;;;15.90;99.90;;;;;;5034567;28;20484;-68
2022/07/12 03:20:37;;;;;;;6.82;4.00;;;15.80;99.90;;;;;;5019525;28;20043;-68
2022/07/12 03:23:02;;;;;;;7.70;4.50;;;15.80;99.90;;;;;;5033415;28;20045;-68
2022/07/12 03:25:28;;;;;;;7.30;4.22;;;15.80;99.90;;;;;;5036250;28;20033;-69
2022/07/12 03:27:54;;;;;;;7.00;4.40;;;15.80;99.90;;;;;;5035260;28;20552;-68
2022/07/12 03:30:19;;;;;;;5.35;2.63;;;15.60;99.90;;;;;;5035841;28;20053;-68
2022/07/12 03:32:45;;;;;;;4.45;2.60;;;15.60;99.90;;;;;;5033337;28;20128;-69
2022/07/12 03:35:11;;;;;;;4.90;2.58;;;15.60;99.90;;;;;;5036119;28;20114;-68
2022/07/12 03:37:44;;;;;;;4.10;2.20;;;15.50;99.90;;;;;;5034130;28;20033;-69
2022/07/12 03:40:11;;;;;;;5.15;2.90;;;15.50;99.90;;;;;;5033739;28;20029;-68
2022/07/12 03:42:36;;;;;;;4.57;2.58;;;15.50;99.90;;;;;;5035032;28;20041;-68
2022/07/12 03:45:02;;;;;;;6.38;2.85;;;15.50;99.90;;;;;;5034156;28;20311;-68
2022/07/12 03:47:28;;;;;;;6.40;3.60;;;15.50;99.90;;;;;;5034989;28;20037;-68
2022/07/12 03:49:55;;;;;;;7.13;3.38;;;15.50;99.90;;;;;;5018802;28;20546;-68
2022/07/12 03:52:21;;;;;;;6.20;3.63;;;15.50;99.90;;;;;;5034181;28;20052;-68
2022/07/12 03:54:47;;;;;;;5.50;2.50;;;15.40;99.90;;;;;;5034141;28;20041;-68
2022/07/12 03:57:15;;;;;;;3.85;2.22;;;15.40;99.90;;;;;;5034678;28;20091;-68
2022/07/12 03:59:45;;;;;;;3.25;2.00;;;15.40;99.90;;;;;;5019348;28;20489;-68
2022/07/12 04:02:12;;;;;;;3.53;1.55;;;15.40;99.90;;;;;;5031975;28;20037;-68
2022/07/12 04:04:38;;;;;;;3.30;1.15;;;15.30;99.90;;;;;;5017269;28;20045;-68
2022/07/12 04:07:04;;;;;;;1.70;1.20;;;15.30;99.90;;;;;;5032011;28;20424;-68
2022/07/12 04:09:29;;;;;;;5.05;1.42;;;15.30;99.90;;;;;;5018878;28;20089;-68
2022/07/12 04:11:55;;;;;;;1.52;1.00;;;15.20;99.90;;;;;;5033620;28;20040;-68
2022/07/12 04:14:21;;;;;;;2.35;1.02;;;15.20;99.90;;;;;;5017186;28;20489;-68
2022/07/12 04:16:46;;;;;;;2.22;1.05;;;15.10;99.90;;;;;;5017907;28;20503;-68
2022/07/12 04:19:12;;;;;;;2.33;1.10;;;15.10;99.90;;;;;;5035378;28;20036;-68
2022/07/12 04:21:38;;;;;;;1.88;1.20;;;15.10;99.90;;;;;;5032312;28;20040;-68
2022/07/12 04:24:05;;;;;;;1.83;1.20;;;15.10;99.90;;;;;;5032904;28;20119;-69
2022/07/12 04:26:31;;;;;;;2.33;1.23;;;15.00;99.90;;;;;;5034521;28;20126;-68
2022/07/12 04:28:57;;;;;;;2.58;1.60;;;15.00;99.90;;;;;;5018690;28;20043;-68
2022/07/12 04:31:23;;;;;;;3.90;1.65;;;14.90;99.90;;;;;;5043075;28;20053;-68
2022/07/12 04:33:49;;;;;;;3.05;1.50;;;14.90;99.90;;;;;;5032301;28;20029;-68
2022/07/12 04:36:14;;;;;;;2.90;1.50;;;14.80;99.90;;;;;;5018651;28;20049;-68
2022/07/12 04:38:40;;;;;;;2.92;1.30;;;14.90;99.90;;;;;;5031998;28;20039;-68
2022/07/12 04:41:06;;;;;;;2.38;1.30;;;14.90;99.90;;;;;;5018968;28;20037;-68
2022/07/12 04:43:31;;;;;;;1.83;1.30;;;14.90;99.90;;;;;;5052798;28;20400;-68
2022/07/12 04:46:08;;;;;;;4.15;1.42;;;14.90;99.90;;;;;;5034293;28;20044;-68
2022/07/12 04:48:33;;;;;;;3.20;1.85;;;15.00;99.90;;;;;;5015196;28;20042;-68
2022/07/12 04:50:59;;;;;;;2.25;1.42;;;14.90;99.90;;;;;;5016404;28;20108;-68
2022/07/12 04:53:24;;;;;;;1.52;1.08;;;14.90;99.90;;;;;;5033096;28;20041;-68
2022/07/12 04:55:50;;;;;;;1.52;1.10;;;14.90;99.90;;;;;;5035596;28;20120;-68
2022/07/12 04:58:16;;;;;;;1.25;1.10;;;14.90;99.90;;;;;;5028507;28;20049;-68
2022/07/12 05:00:41;;;;;;;2.33;1.17;;;15.00;99.90;;;;;;5033668;28;20497;-68
2022/07/12 05:03:07;;;;;;;2.88;1.65;;;15.00;99.90;;;;;;5021582;28;20041;-68
2022/07/12 05:05:32;;;;;;;2.85;1.40;;;15.10;99.90;;;;;;5017861;28;20033;-68
2022/07/12 05:07:58;;;;;;;3.70;2.05;;;15.00;99.90;;;;;;5020199;28;20533;-68
2022/07/12 05:10:24;;;;;;;4.68;2.47;;;15.00;99.90;;;;;;5015350;28;20084;-68
2022/07/12 05:12:49;;;;;;;5.78;3.17;;;15.10;99.90;;;;;;5028463;28;20397;-68
2022/07/12 05:15:15;;;;;;;5.13;2.88;;;15.10;99.90;;;;;;5036743;28;20040;-68
2022/07/12 05:17:40;;;;;;;5.75;2.90;;;15.20;99.90;;;;;;5032172;28;20501;-68
2022/07/12 05:20:06;;;;;;;6.72;2.75;;;15.20;99.90;;;;;;5041853;28;20039;-68
2022/07/12 05:22:32;;;;;;;5.75;2.70;;;15.20;99.90;;;;;;5043581;28;20497;-68
2022/07/12 05:24:57;;;;;;;4.57;2.58;;;15.20;99.90;;;;;;5038379;28;20072;-68
2022/07/12 05:27:23;;;;;;;5.03;2.67;;;15.10;99.90;;;;;;5031303;28;20037;-68
2022/07/12 05:29:49;;;;;;;5.43;2.40;;;15.10;99.90;;;;;;5051009;28;20066;-68
2022/07/12 05:32:14;;;;;;;6.75;2.65;;;15.10;99.90;;;;;;5034509;28;20525;-68
2022/07/12 05:34:41;;;;;;;5.50;2.85;;;15.20;99.90;;;;;;5038553;28;20593;-68
2022/07/12 05:37:06;;;;;;;5.97;3.00;;;15.30;99.90;;;;;;5036176;28;20136;-68
2022/07/12 05:39:32;;;;;;;5.90;3.13;;;15.40;99.90;;;;;;5037385;28;20045;-68
2022/07/12 05:41:57;;;;;;;6.13;3.30;;;15.40;99.90;;;;;;5037663;28;20076;-68
2022/07/12 05:44:23;;;;;;;5.28;2.78;;;15.50;99.90;;;;;;5021468;28;20056;-68
2022/07/12 05:46:49;;;;;;;6.13;3.28;;;15.60;99.90;;;;;;5018599;28;20091;-68
2022/07/12 05:49:14;;;;;;;5.75;3.25;;;15.70;99.90;;;;;;5021345;28;20056;-68
2022/07/12 05:54:24;;;;;;;6.43;3.20;;;15.80;99.90;;;;;;5017925;28;20398;-68
2022/07/12 05:56:50;;;;;;;6.47;3.42;;;15.80;99.90;;;;;;5027566;28;20051;-68
2022/07/12 05:59:20;;;;;;;6.50;3.50;;;15.90;99.90;;;;;;5035634;28;20117;-68
2022/07/12 06:01:45;;;;;;;5.43;3.10;;;16.00;99.90;;;;;;5019951;28;20036;-68
2022/07/12 06:04:11;;;;;;;6.40;3.53;;;16.10;99.90;;;;;;5028003;28;20029;-69
2022/07/12 06:06:36;;;;;;;7.72;3.75;;;16.00;99.90;;;;;;5014561;28;20493;-69
2022/07/12 06:09:03;;;;;;;6.70;3.90;;;16.10;99.90;;;;;;5018140;28;20072;-68
2022/07/12 06:11:29;;;;;;;7.50;4.18;;;16.10;99.90;;;;;;5028311;28;20494;-68
2022/07/12 06:13:54;;;;;;;7.10;3.92;;;16.10;99.90;;;;;;5008484;28;20128;-68
2022/07/12 06:16:20;;;;;;;6.80;4.00;;;16.10;99.90;;;;;;5035334;28;20451;-68
2022/07/12 06:18:46;;;;;;;8.27;4.53;;;16.20;99.90;;;;;;5036766;28;20037;-69
2022/07/12 06:21:11;;;;;;;7.43;4.30;;;16.30;99.90;;;;;;5036849;28;20046;-68
2022/07/12 06:23:37;;;;;;;7.07;4.10;;;16.40;99.90;;;;;;5036930;28;20049;-68
2022/07/12 06:26:02;;;;;;;6.93;3.55;;;16.50;99.90;;;;;;5036256;28;20037;-68
2022/07/12 06:28:28;;;;;;;7.03;3.85;;;16.60;99.90;;;;;;5032951;28;20101;-68
2022/07/12 06:30:54;;;;;;;6.65;4.22;;;16.70;99.90;;;;;;5019606;28;20056;-68
2022/07/12 06:33:20;;;;;;;7.35;4.20;;;16.60;99.90;;;;;;5035584;28;20028;-69
2022/07/12 06:35:46;;;;;;;6.88;4.18;;;16.50;99.90;;;;;;5034586;28;20041;-69
2022/07/12 06:38:11;;;;;;;7.00;4.25;;;16.60;99.90;;;;;;5017818;28;20064;-68
2022/07/12 06:40:37;;;;;;;7.82;3.92;;;16.60;99.90;;;;;;5037040;28;20144;-69
2022/07/12 06:43:07;;;;;;;7.40;4.40;;;16.70;99.90;;;;;;5035285;28;20194;-68
2022/07/12 06:45:33;;;;;;;10.63;4.40;;;16.80;99.90;;;;;;5036316;28;20045;-68
2022/07/12 06:47:58;;;;;;;7.10;4.18;;;16.90;99.90;;;;;;5036778;28;20037;-68
2022/07/12 06:50:24;;;;;;;7.18;4.55;;;17.00;99.90;;;;;;5036524;28;20036;-69
2022/07/12 06:52:49;;;;;;;7.30;4.35;;;17.10;99.90;;;;;;5014335;28;20037;-68
2022/07/12 06:55:15;;;;;;;8.20;4.90;;;17.10;99.90;;;;;;5019416;28;20060;-69
2022/07/12 06:57:41;;;;;;;7.53;4.20;;;17.10;99.90;;;;;;5002460;28;20057;-69
2022/07/12 07:00:07;;;;;;;7.22;4.40;;;17.20;99.90;;;;;;5018658;28;20453;-69
2022/07/12 07:02:33;;;;;;;6.30;3.95;;;17.20;99.90;;;;;;5032976;28;20060;-69
2022/07/12 07:04:59;;;;;;;7.13;4.30;;;17.30;99.90;;;;;;5034642;28;20118;-69
2022/07/12 07:07:24;;;;;;;6.90;4.13;;;17.40;99.90;;;;;;5032655;28;20462;-69
2022/07/12 07:09:50;;;;;;;7.68;4.45;;;17.50;99.90;;;;;;5009882;28;20128;-69
2022/07/12 07:12:16;;;;;;;6.22;3.80;;;17.60;99.90;;;;;;5018677;28;20112;-69
2022/07/12 07:14:41;;;;;;;6.97;4.38;;;17.60;99.90;;;;;;5019770;28;20493;-69
2022/07/12 07:17:08;;;;;;;6.75;4.13;;;17.70;99.90;;;;;;5014048;28;20397;-69
2022/07/12 07:19:33;;;;;;;7.00;4.20;;;17.70;99.90;;;;;;5036505;28;20456;-69
2022/07/12 07:21:59;;;;;;;7.80;4.70;;;17.80;99.90;;;;;;5035791;28;20128;-68
2022/07/12 07:24:24;;;;;;;5.78;3.78;;;17.80;99.90;;;;;;5036122;28;20076;-69
2022/07/12 07:26:51;;;;;;;6.47;3.78;;;17.90;99.90;;;;;;5034590;28;20063;-69
2022/07/12 07:32:00;;;;;;;7.30;4.35;;;18.00;99.90;;;;;;5034996;28;20053;-69
2022/07/12 07:34:26;;;;;;;7.22;4.40;;;18.20;99.90;;;;;;5029018;28;20047;-71
2022/07/12 07:36:52;;;;;;;6.70;3.70;;;18.40;99.90;;;;;;5003256;28;20051;-75
2022/07/12 07:39:18;;;;;;;6.47;3.90;;;18.50;99.90;;;;;;5015956;28;20053;-76
2022/07/12 07:41:43;;;;;;;6.00;3.90;;;18.60;99.90;;;;;;5025955;28;20049;-75
2022/07/12 07:44:09;;;;;;;6.95;3.95;;;18.80;99.90;;;;;;5034991;28;20037;-70
2022/07/12 07:46:35;;;;;;;6.47;4.10;;;18.90;99.90;;;;;;5035796;28;20039;-70
2022/07/12 07:49:00;;;;;;;6.40;3.05;;;19.10;99.90;;;;;;5035794;28;20037;-70
2022/07/12 07:51:26;;;;;;;6.90;3.55;;;19.20;99.90;;;;;;5029741;28;20550;-70
2022/07/12 07:53:51;;;;;;;5.93;3.78;;;19.40;99.90;;;;;;5023764;28;20420;-70
2022/07/12 07:56:17;;;;;;;6.35;3.17;;;19.30;99.90;;;;;;5034980;28;20040;-71
2022/07/12 07:58:43;;;;;;;6.00;3.00;;;19.30;99.90;;;;;;5035821;28;20036;-70
2022/07/12 08:01:08;;;;;;;5.32;3.20;;;19.40;99.90;;;;;;5016874;28;20501;-71
2022/07/12 08:03:34;;;;;;;5.07;3.08;;;19.50;99.90;;;;;;5032365;28;20036;-71
2022/07/12 08:06:00;;;;;;;4.90;3.00;;;19.60;99.90;;;;;;5033736;28;20040;-70
2022/07/12 08:08:28;;;;;;;5.05;3.13;;;19.60;99.90;;;;;;5007733;28;20083;-70
2022/07/12 08:10:54;;;;;;;5.57;3.10;;;19.70;99.90;;;;;;5028265;28;20039;-70
2022/07/12 08:13:19;;;;;;;6.90;2.70;;;19.80;99.90;;;;;;5033752;28;20032;-70
2022/07/12 08:15:45;;;;;;;4.55;2.67;;;20.00;99.90;;;;;;5018824;28;20037;-70
2022/07/12 08:18:12;;;;;;;4.35;2.63;;;20.10;99.90;;;;;;5034706;28;20128;-71
2022/07/12 08:20:37;;;;;;;5.22;3.00;;;20.10;99.90;;;;;;5034922;28;20132;-70
2022/07/12 08:23:03;;;;;;;7.75;3.10;;;20.20;99.90;;;;;;5033329;28;20172;-70
2022/07/12 08:25:28;;;;;;;5.43;2.95;;;20.30;99.90;;;;;;5011114;28;20098;-70
2022/07/12 08:27:54;;;;;;;4.93;3.15;;;20.40;99.90;;;;;;5029481;28;20405;-71
2022/07/12 08:30:20;;;;;;;4.50;2.60;;;20.50;99.90;;;;;;5014879;28;20061;-71
2022/07/12 08:32:46;;;;;;;4.57;2.90;;;20.60;99.90;;;;;;5048074;28;20501;-70
2022/07/12 08:35:14;;;;;;;4.50;2.90;;;20.70;99.90;;;;;;5031215;28;20037;-70
2022/07/12 08:37:40;;;;;;;4.38;2.58;;;20.70;99.90;;;;;;5030156;28;20030;-70
2022/07/12 08:40:07;;;;;;;5.00;2.78;;;20.60;99.90;;;;;;5034054;28;20044;-70
2022/07/12 08:42:33;;;;;;;5.35;2.90;;;20.70;99.90;;;;;;5033413;28;20029;-70
2022/07/12 08:44:59;;;;;;;5.03;3.13;;;20.70;99.90;;;;;;5034163;28;20055;-70
2022/07/12 08:47:25;;;;;;;5.10;3.08;;;20.80;99.90;;;;;;5034766;28;20389;-70
2022/07/12 08:50:19;;;;;;;6.03;3.38;;;20.80;99.90;;;;;;5037788;28;20049;-71
2022/07/12 08:52:47;;;;;;;6.82;3.55;;;20.80;99.90;;;;;;5038010;28;20076;-70
2022/07/12 08:55:31;;;;;;;5.63;3.15;;;20.80;99.90;;;;;;5020383;28;20044;-70
2022/07/12 08:57:59;;;;;;;5.05;2.92;;;20.90;99.90;;;;;;5020464;28;20068;-71
2022/07/12 09:00:26;;;;;;;6.20;3.83;;;20.90;99.90;;;;;;5018377;28;20428;-71
2022/07/12 09:02:53;;;;;;;5.15;3.55;;;21.00;99.90;;;;;;5021977;28;20037;-71
2022/07/12 09:05:32;;;;;;;6.18;3.33;;;21.10;99.90;;;;;;5034622;28;20114;-70
2022/07/12 09:08:03;;;;;;;5.97;3.67;;;21.10;99.90;;;;;;5024454;28;20583;-71
2022/07/12 09:10:29;;;;;;;6.30;3.80;;;21.10;99.90;;;;;;5031233;28;20485;-70
2022/07/12 09:12:55;;;;;;;6.18;3.95;;;21.20;99.90;;;;;;5034319;28;20051;-70
2022/07/12 09:15:23;;;;;;;6.20;3.78;;;21.30;99.90;;;;;;5032668;28;20079;-73
2022/07/12 09:17:55;;;;;;;6.30;4.05;;;21.40;99.90;;;;;;5038588;28;20428;-73
2022/07/12 09:20:20;;;;;;;6.43;3.53;;;21.40;99.90;;;;;;5035832;28;20041;-72
2022/07/12 09:22:55;;;;;;;7.88;4.32;;;21.50;99.90;;;;;;5037666;28;20033;-73
2022/07/12 09:25:21;;;;;;;7.50;4.03;;;21.60;99.90;;;;;;5018759;28;20029;-73
2022/07/12 09:28:03;;;;;;;7.00;4.07;;;21.60;99.90;;;;;;5020029;28;20033;-73
2022/07/12 09:30:29;;;;;;;6.70;3.97;;;21.70;99.90;;;;;;5036250;28;20053;-73
2022/07/12 09:36:10;;;;;;;6.82;4.28;;;21.80;99.90;;;;;;5036260;28;20041;-72
2022/07/12 09:38:48;;;;;;;8.23;3.92;;;21.90;99.90;;;;;;5019630;28;20041;-72
2022/07/12 09:41:17;;;;;;;5.80;3.55;;;21.90;99.90;;;;;;5018231;28;20036;-73
2022/07/12 09:43:44;;;;;;;6.75;4.00;;;22.00;99.90;;;;;;5036597;28;20041;-73
2022/07/12 09:46:10;;;;;;;5.38;3.45;;;21.90;99.90;;;;;;5020027;28;20060;-73
2022/07/12 09:48:36;;;;;;;6.65;3.40;;;21.80;99.90;;;;;;5033787;28;20045;-73
2022/07/12 09:51:04;;;;;;;5.18;3.40;;;21.70;99.90;;;;;;5030916;28;20493;-72
2022/07/12 09:53:38;;;;;;;5.97;3.65;;;21.70;99.90;;;;;;5017748;28;20477;-72
2022/07/12 09:56:06;;;;;;;5.85;3.17;;;21.70;99.90;;;;;;5037157;28;20500;-73
2022/07/12 09:59:00;;;;;;;5.72;3.22;;;21.70;99.90;;;;;;5037063;28;20052;-73
2022/07/12 10:01:30;;;;;;;7.57;3.60;;;21.80;99.90;;;;;;5019990;28;20493;-73
2022/07/12 10:03:58;;;;;;;7.05;3.53;;;21.90;99.90;;;;;;5036630;28;20048;-73
2022/07/12 10:06:25;;;;;;;7.22;4.20;;;22.00;99.90;;;;;;5037558;28;20068;-73
2022/07/12 10:08:52;;;;;;;7.70;4.10;;;22.10;99.90;;;;;;5037764;28;20041;-72
2022/07/12 10:11:19;;;;;;;6.20;3.90;;;22.20;99.90;;;;;;5023463;28;20075;-73
2022/07/12 10:13:46;;;;;;;4.15;2.30;;;22.30;99.90;;;;;;5036150;28;20072;-72
2022/07/12 10:16:14;;;;;;;5.85;3.13;;;22.40;99.90;;;;;;5029761;28;20045;-73
2022/07/12 10:18:40;;;;;;;4.68;2.58;;;22.40;99.90;;;;;;5019219;28;20086;-72
2022/07/12 10:21:20;;;;;;;3.67;2.17;;;22.50;99.90;;;;;;5028490;28;20116;-72
2022/07/12 10:23:45;;;;;;;5.32;2.30;;;22.60;99.90;;;;;;5034403;28;20071;-72
2022/07/12 10:26:14;;;;;;;3.00;1.90;;;22.60;99.90;;;;;;5033550;28;20065;-72
2022/07/12 10:29:02;;;;;;;5.20;2.55;;;22.80;99.90;;;;;;5026488;28;20401;-72
2022/07/12 10:31:39;;;;;;;4.10;2.28;;;22.90;99.90;;;;;;5035658;28;20060;-72
2022/07/12 10:34:23;;;;;;;2.50;1.88;;;23.10;99.90;;;;;;5027529;28;20036;-72
2022/07/12 10:36:55;;;;;;;3.05;1.98;;;23.10;99.90;;;;;;5019126;28;20068;-72
2022/07/12 10:39:25;;;;;;;3.17;1.60;;;23.10;99.90;;;;;;5035395;28;20041;-72
2022/07/12 10:42:06;;;;;;;3.95;1.42;;;23.10;99.90;;;;;;5034576;28;20488;-72
2022/07/12 10:44:40;;;;;;;3.90;1.80;;;23.20;99.90;;;;;;5031025;28;20041;-72
2022/07/12 10:47:07;;;;;;;2.67;1.60;;;23.30;99.90;;;;;;5034571;28;20497;-72
2022/07/12 10:49:35;;;;;;;2.35;1.30;;;23.30;99.90;;;;;;5035843;28;20068;-72
2022/07/12 10:52:10;;;;;;;1.60;1.40;;;23.40;99.90;;;;;;5035883;28;20095;-72
2022/07/12 10:54:42;;;;;;;1.52;1.15;;;23.40;99.90;;;;;;5027303;28;20045;-72
2022/07/12 10:57:08;;;;;;;2.22;1.30;;;23.40;99.90;;;;;;5004309;28;20120;-72
2022/07/12 10:59:37;;;;;;;2.40;1.50;;;23.40;99.90;;;;;;5011247;28;20044;-72
2022/07/12 11:02:05;;;;;;;2.35;1.42;;;23.50;99.90;;;;;;5031615;28;20132;-72
2022/07/12 11:04:30;;;;;;;2.58;1.52;;;23.50;99.90;;;;;;5016291;28;20044;-68
2022/07/12 11:07:01;;;;;;;2.78;1.65;;;23.60;99.90;;;;;;5015901;28;20037;-68
2022/07/12 11:09:28;;;;;;;2.55;1.63;;;23.70;99.90;;;;;;5035637;28;20051;-68
2022/07/12 11:11:54;;;;;;;2.47;1.85;;;23.60;99.90;;;;;;5034072;28;20037;-68
2022/07/12 11:14:33;;;;;;;2.38;1.60;;;23.60;99.90;;;;;;5035249;28;20052;-68
2022/07/12 11:16:59;;;;;;;2.30;1.30;;;23.70;99.90;;;;;;5035628;28;20053;-68
2022/07/12 11:19:31;;;;;;;2.55;1.35;;;23.80;99.90;;;;;;5036315;28;20033;-68
2022/07/12 11:21:58;;;;;;;4.45;1.50;;;23.80;99.90;;;;;;5035522;28;20048;-68
2022/07/12 11:24:25;;;;;;;2.00;1.30;;;23.70;99.90;;;;;;5027400;28;20668;-71
2022/07/12 11:26:52;;;;;;;2.83;1.20;;;23.60;99.90;;;;;;5032436;28;20055;-72
2022/07/12 11:29:18;;;;;;;3.90;1.98;;;23.60;99.90;;;;;;5018593;28;20041;-72
2022/07/12 11:31:45;;;;;;;2.85;1.50;;;23.60;99.90;;;;;;5015602;28;20044;-68
2022/07/12 11:34:37;;;;;;;2.15;1.40;;;23.70;99.90;;;;;;5035157;28;20045;-68
2022/07/12 11:37:03;;;;;;;3.30;1.50;;;23.70;99.90;;;;;;5014981;28;20103;-68
2022/07/12 11:39:33;;;;;;;2.38;1.52;;;23.70;99.90;;;;;;5032258;28;20096;-68
2022/07/12 11:41:59;;;;;;;3.03;1.50;;;23.80;99.90;;;;;;5014803;28;20497;-68
2022/07/12 11:44:44;;;;;;;2.65;1.30;;;23.80;99.90;;;;;;5016472;28;20090;-68
2022/07/12 11:47:10;;;;;;;2.13;1.40;;;23.80;99.90;;;;;;5032971;28;20037;-68
2022/07/12 11:49:36;;;;;;;3.13;1.35;;;23.90;99.90;;;;;;5032579;28;20032;-68
2022/07/12 11:52:05;;;;;;;2.22;1.13;;;23.90;99.90;;;;;;5029320;28;20040;-68
2022/07/12 11:54:30;;;;;;;1.42;1.30;;;24.00;99.90;;;;;;5034035;28;20052;-68
2022/07/12 11:57:09;;;;;;;2.40;1.20;;;24.00;99.90;;;;;;5031007;28;20040;-68
2022/07/12 11:59:35;;;;;;;2.28;1.05;;;24.10;99.90;;;;;;5027241;28;20481;-68
2022/07/12 12:02:09;;;;;;;1.88;1.17;;;24.20;99.90;;;;;;5014627;28;20036;-68
2022/07/12 12:04:49;;;;;;;3.28;1.20;;;24.30;99.90;;;;;;5030082;28;20068;-68
2022/07/12 12:07:16;;;;;;;2.38;1.17;;;24.50;99.90;;;;;;5017697;28;20040;-68
2022/07/12 12:10:01;;;;;;;2.33;1.23;;;24.50;99.90;;;;;;5033826;28;20405;-68
2022/07/12 12:12:43;;;;;;;2.90;1.10;;;24.50;99.90;;;;;;5015436;28;20033;-68
2022/07/12 12:15:11;;;;;;;2.85;1.33;;;24.60;99.90;;;;;;5017409;28;20401;-68
2022/07/12 12:17:42;;;;;;;2.45;1.00;;;24.60;99.90;;;;;;5032080;28;20048;-68
2022/07/12 12:20:16;;;;;;;1.00;0.90;;;24.60;99.90;;;;;;5007649;28;20041;-68
2022/07/12 12:22:44;;;;;;;2.40;0.93;;;24.60;99.90;;;;;;5013226;28;20040;-68
2022/07/12 12:25:13;;;;;;;2.67;0.82;;;24.60;99.90;;;;;;5012269;28;20029;-68
2022/07/12 12:27:45;;;;;;;1.77;0.90;;;24.60;99.90;;;;;;5021811;28;20069;-69
2022/07/12 12:30:12;;;;;;;0.95;0.77;;;24.60;99.90;;;;;;5025804;28;20037;-68
2022/07/12 12:32:47;;;;;;;1.20;0.90;;;24.60;99.90;;;;;;5016403;28;20128;-68
2022/07/12 12:35:15;;;;;;;0.93;0.90;;;24.60;99.90;;;;;;5035208;28;20106;-67
2022/07/12 12:37:48;;;;;;;2.13;0.90;;;24.70;99.90;;;;;;5018641;28;20072;-68
2022/07/12 12:40:19;;;;;;;1.85;1.00;;;24.80;99.90;;;;;;5016994;28;20040;-68
2022/07/12 12:42:45;;;;;;;1.90;1.00;;;24.80;99.90;;;;;;5035165;28;20073;-72
2022/07/12 12:45:24;;;;;;;3.15;0.90;;;24.70;99.90;;;;;;5035041;28;20080;-74
2022/07/12 12:48:22;;;;;;;1.70;1.00;;;24.70;99.90;;;;;;5011425;28;20083;-72
2022/07/12 12:50:50;;;;;;;1.02;0.80;;;24.80;99.90;;;;;;5011357;28;20045;-70
2022/07/12 12:53:25;;;;;;;1.25;0.90;;;24.80;99.90;;;;;;5018332;28;20401;-73
2022/07/12 12:55:52;;;;;;;1.10;0.77;;;24.80;99.90;;;;;;5033173;28;20052;-74
2022/07/12 12:58:19;;;;;;;1.77;1.05;;;24.80;99.90;;;;;;5029086;28;20059;-73